Time;durP1;ratioP1;P1;durP2;ratioP2;P2;SDS_P1;SDS_P2;PMS_P1;PMS_P2;Temp;Humidity;BMP_temperature;BMP_pressure;BME280_temperature;BME280_humidity;BME280_pressure;Samples;Min_cycle;Max_cycle;Signal;HPM_P1;HPM_P2
2022/05/14 00:00:58;;;;;;;24.48;7.45;;;;;;;10.22;100.00;101923.41;5140385;27;20027;-66
2022/05/14 00:03:25;;;;;;;23.25;7.28;;;;;;;10.11;100.00;101924.06;5137123;27;20022;-67
2022/05/14 00:05:53;;;;;;;21.98;7.05;;;;;;;10.15;100.00;101929.41;5143116;27;20037;-66
2022/05/14 00:08:20;;;;;;;22.40;6.90;;;;;;;10.19;100.00;101931.25;5142896;27;20103;-67
2022/05/14 00:13:30;;;;;;;23.65;7.55;;;;;;;10.03;100.00;101923.00;5144731;27;20037;-66
2022/05/14 00:15:56;;;;;;;22.80;6.97;;;;;;;10.09;100.00;101920.50;5144242;27;20027;-66
2022/05/14 00:18:23;;;;;;;22.42;6.93;;;;;;;10.02;100.00;101921.22;5145594;27;20034;-66
2022/05/14 00:20:50;;;;;;;25.73;7.50;;;;;;;9.97;100.00;101920.19;5143454;27;20022;-66
2022/05/14 00:23:15;;;;;;;21.92;7.13;;;;;;;9.95;100.00;101924.56;5146062;27;20106;-66
2022/05/14 00:25:41;;;;;;;25.70;7.60;;;;;;;10.06;100.00;101914.22;5142919;27;20059;-66
2022/05/14 00:28:08;;;;;;;21.70;7.28;;;;;;;9.97;100.00;101917.53;5145801;27;20037;-66
2022/05/14 00:30:34;;;;;;;21.50;7.53;;;;;;;9.85;100.00;101920.78;5143551;27;20039;-66
2022/05/14 00:33:00;;;;;;;21.75;7.00;;;;;;;9.87;100.00;101913.81;5144724;27;20093;-66
2022/05/14 00:35:26;;;;;;;23.05;6.95;;;;;;;9.90;100.00;101903.31;5144591;27;20102;-66
2022/05/14 00:37:52;;;;;;;23.17;6.95;;;;;;;9.85;100.00;101906.69;5143385;27;20030;-66
2022/05/14 00:40:25;;;;;;;21.30;7.35;;;;;;;9.81;100.00;101910.13;5145978;27;20533;-66
2022/05/14 00:42:52;;;;;;;22.23;7.25;;;;;;;9.77;100.00;101912.69;5143265;27;20459;-66
2022/05/14 00:45:18;;;;;;;22.13;7.30;;;;;;;9.67;100.00;101912.41;5145798;27;20093;-66
2022/05/14 00:47:48;;;;;;;21.55;7.47;;;;;;;9.65;100.00;101906.19;5142376;27;20026;-65
2022/05/14 00:50:25;;;;;;;20.98;7.10;;;;;;;9.69;100.00;101908.94;5139014;27;20050;-66
2022/05/14 00:52:58;;;;;;;21.90;7.47;;;;;;;9.62;100.00;101907.00;5140134;27;20606;-65
2022/05/14 00:55:25;;;;;;;22.70;7.55;;;;;;;9.58;100.00;101910.41;5144341;27;20030;-65
2022/05/14 00:57:51;;;;;;;20.65;7.50;;;;;;;9.53;100.00;101907.66;5142669;27;20019;-65
2022/05/14 01:00:21;;;;;;;22.23;7.28;;;;;;;9.50;100.00;101904.97;5146073;27;20079;-68
2022/05/14 01:02:47;;;;;;;22.60;7.40;;;;;;;9.51;100.00;101905.84;5142230;27;20034;-64
2022/05/14 01:05:13;;;;;;;23.23;7.82;;;;;;;9.49;100.00;101910.19;5145650;27;20034;-64
2022/05/14 01:07:40;;;;;;;21.88;7.70;;;;;;;9.47;100.00;101904.00;5142349;27;20023;-64
2022/05/14 01:10:09;;;;;;;23.05;7.60;;;;;;;9.57;100.00;101908.66;5138830;27;20392;-64
2022/05/14 01:12:37;;;;;;;21.98;7.90;;;;;;;9.54;100.00;101905.94;5136060;27;20022;-67
2022/05/14 01:15:15;;;;;;;23.15;8.15;;;;;;;9.52;100.00;101910.28;5141158;27;20470;-64
2022/05/14 01:17:41;;;;;;;22.48;7.93;;;;;;;9.54;100.00;101909.47;5135232;27;20162;-69
2022/05/14 01:20:07;;;;;;;22.98;7.95;;;;;;;9.41;100.00;101900.34;5140312;27;20110;-65
2022/05/14 01:22:50;;;;;;;24.77;7.95;;;;;;;9.36;100.00;101904.63;5141859;27;20020;-67
2022/05/14 01:28:13;;;;;;;24.10;7.57;;;;;;;9.34;100.00;101901.03;5140647;27;20034;-66
2022/05/14 01:30:50;;;;;;;23.05;7.70;;;;;;;9.33;100.00;101903.63;5145469;27;20023;-64
2022/05/14 01:33:16;;;;;;;22.88;7.28;;;;;;;9.34;100.00;101901.03;5143227;27;20023;-63
2022/05/14 01:35:42;;;;;;;20.10;6.97;;;;;;;9.24;100.00;101904.28;5144672;27;20033;-63
2022/05/14 01:38:09;;;;;;;21.77;7.30;;;;;;;9.19;100.00;101900.63;5142251;27;20027;-66
2022/05/14 01:40:35;;;;;;;20.30;6.90;;;;;;;9.14;100.00;101905.75;5145843;27;20023;-65
2022/05/14 01:43:00;;;;;;;22.42;6.60;;;;;;;9.11;100.00;101899.53;5141822;27;20472;-63
2022/05/14 01:45:26;;;;;;;22.98;7.25;;;;;;;9.06;100.00;101904.69;5144749;27;20019;-62
2022/05/14 01:47:52;;;;;;;19.25;6.13;;;;;;;9.08;100.00;101909.13;5143356;27;20027;-62
2022/05/14 01:50:17;;;;;;;21.63;6.53;;;;;;;9.05;100.00;101902.88;5143305;27;20453;-62
2022/05/14 01:52:42;;;;;;;19.52;5.85;;;;;;;9.02;100.00;101911.59;5144527;27;20380;-63
2022/05/14 01:55:08;;;;;;;21.13;6.40;;;;;;;9.01;100.00;101914.19;5141891;27;20035;-62
2022/05/14 01:57:34;;;;;;;21.90;5.90;;;;;;;8.97;100.00;101915.88;5144969;27;20430;-62
2022/05/14 01:59:59;;;;;;;18.20;5.65;;;;;;;8.98;100.00;101912.34;5141919;27;20119;-62
2022/05/14 02:02:24;;;;;;;20.55;6.10;;;;;;;8.96;100.00;101907.91;5125277;27;20035;-62
2022/05/14 02:04:50;;;;;;;21.23;5.88;;;;;;;8.93;100.00;101908.72;5143209;27;20047;-62
2022/05/14 02:07:15;;;;;;;21.95;6.20;;;;;;;8.91;100.00;101910.41;5146065;27;20106;-62
2022/05/14 02:09:40;;;;;;;20.88;6.00;;;;;;;8.89;100.00;101915.63;5148149;27;20080;-63
2022/05/14 02:12:06;;;;;;;19.55;5.90;;;;;;;8.87;100.00;101916.47;5126825;27;20065;-62
2022/05/14 02:14:32;;;;;;;18.83;6.03;;;;;;;8.84;100.00;101914.63;5141127;27;20023;-64
2022/05/14 02:16:57;;;;;;;22.20;6.32;;;;;;;8.80;100.00;101912.75;5148171;27;20101;-68
2022/05/14 02:19:23;;;;;;;20.17;5.88;;;;;;;8.77;100.00;101911.78;5146397;27;20389;-66
2022/05/14 02:21:49;;;;;;;22.35;6.50;;;;;;;8.74;100.00;101912.56;5146974;27;20039;-65
2022/05/14 02:24:14;;;;;;;21.08;6.50;;;;;;;8.69;100.00;101912.44;5147472;27;20033;-65
2022/05/14 02:26:39;;;;;;;20.45;6.30;;;;;;;8.66;100.00;101911.44;5145490;27;20027;-65
2022/05/14 02:29:05;;;;;;;22.80;6.60;;;;;;;8.52;100.00;101911.06;5148325;27;20022;-64
2022/05/14 02:31:31;;;;;;;23.25;6.90;;;;;;;8.45;100.00;101914.34;5145156;27;20124;-65
2022/05/14 02:33:57;;;;;;;20.73;6.43;;;;;;;8.40;100.00;101919.44;5141782;27;20054;-65
2022/05/14 02:36:23;;;;;;;20.25;6.85;;;;;;;8.30;100.00;101914.72;5139731;27;20464;-65
2022/05/14 02:38:48;;;;;;;21.55;6.80;;;;;;;8.21;100.00;101920.59;5145107;27;20022;-65
2022/05/14 02:41:14;;;;;;;20.10;6.88;;;;;;;8.14;100.00;101913.34;5145073;27;20488;-65
2022/05/14 02:43:40;;;;;;;21.08;6.78;;;;;;;8.10;100.00;101920.28;5143227;27;20027;-66
2022/05/14 02:46:06;;;;;;;22.27;6.45;;;;;;;8.12;100.00;101921.22;5147091;27;20080;-65
2022/05/14 02:48:32;;;;;;;22.17;6.80;;;;;;;8.09;100.00;101918.50;5146175;27;20414;-64
2022/05/14 02:50:59;;;;;;;22.38;6.63;;;;;;;8.11;100.00;101922.09;5146089;27;20465;-64
2022/05/14 02:53:25;;;;;;;22.40;7.00;;;;;;;8.09;100.00;101925.50;5146811;27;20641;-65
2022/05/14 02:55:50;;;;;;;22.90;6.82;;;;;;;8.07;100.00;101924.53;5145086;27;20081;-65
2022/05/14 02:59:07;;;;;;;21.63;6.38;;;;;;;8.06;100.00;101925.41;5141535;27;20034;-65
2022/05/14 03:01:05;;;;;;;21.80;6.28;;;;;;;8.07;100.00;101919.28;5139780;27;20059;-65
2022/05/14 03:03:31;;;;;;;20.20;6.13;;;;;;;8.05;100.00;101923.63;5144357;27;20023;-65
2022/05/14 03:05:57;;;;;;;22.83;6.40;;;;;;;8.03;100.00;101924.44;5141340;27;20427;-65
2022/05/14 03:08:23;;;;;;;22.10;6.63;;;;;;;7.97;100.00;101924.25;5139692;27;20054;-66
2022/05/14 03:10:48;;;;;;;17.90;5.88;;;;;;;7.94;100.00;101924.16;5146987;27;20031;-66
2022/05/14 03:13:13;;;;;;;21.35;6.28;;;;;;;7.91;100.00;101924.06;5126609;27;20031;-64
2022/05/14 03:15:39;;;;;;;20.23;6.47;;;;;;;7.89;100.00;101917.84;5145812;27;20027;-65
2022/05/14 03:18:04;;;;;;;19.27;6.22;;;;;;;7.88;100.00;101913.44;5146505;27;20125;-66
2022/05/14 03:20:29;;;;;;;22.50;6.40;;;;;;;7.85;100.00;101910.72;5144340;27;20065;-65
2022/05/14 03:22:55;;;;;;;22.10;6.43;;;;;;;7.88;100.00;101916.06;5147363;27;20030;-66
2022/05/14 03:25:20;;;;;;;19.83;6.55;;;;;;;7.83;100.00;101907.13;5144404;27;20023;-65
2022/05/14 03:27:45;;;;;;;21.33;6.72;;;;;;;7.79;100.00;101921.94;5146261;27;20115;-66
2022/05/14 03:30:11;;;;;;;21.52;6.75;;;;;;;7.76;100.00;101919.22;5145452;27;20031;-66
2022/05/14 03:32:36;;;;;;;20.30;6.80;;;;;;;7.78;100.00;101925.41;5145206;27;20031;-66
2022/05/14 03:35:05;;;;;;;22.60;6.90;;;;;;;7.81;100.00;101925.50;5146538;27;20453;-66
2022/05/14 03:37:32;;;;;;;20.20;6.55;;;;;;;7.83;100.00;101936.06;5144011;27;20452;-65
2022/05/14 03:39:58;;;;;;;20.55;7.10;;;;;;;7.79;100.00;101916.66;5128714;27;20037;-64
2022/05/14 03:42:23;;;;;;;20.52;6.60;;;;;;;7.77;100.00;101922.72;5143452;27;20031;-66
2022/05/14 03:44:48;;;;;;;20.30;6.60;;;;;;;7.76;100.00;101920.91;5146508;27;20447;-63
2022/05/14 03:47:14;;;;;;;21.75;6.85;;;;;;;7.72;100.00;101919.94;5145093;27;20049;-65
2022/05/14 03:49:40;;;;;;;21.02;6.63;;;;;;;7.68;100.00;101918.94;5144898;27;20470;-65
2022/05/14 03:52:06;;;;;;;23.20;6.70;;;;;;;7.72;100.00;101926.91;5145793;27;20030;-64
2022/05/14 03:54:32;;;;;;;21.35;6.88;;;;;;;7.72;100.00;101919.03;5143862;27;20027;-65
2022/05/14 03:56:57;;;;;;;21.00;6.90;;;;;;;7.70;100.00;101926.00;5147010;27;20079;-64
2022/05/14 03:59:23;;;;;;;21.65;7.13;;;;;;;7.70;100.00;101918.97;5142810;27;20054;-66
2022/05/14 04:01:48;;;;;;;22.33;6.95;;;;;;;7.67;100.00;101918.88;5146103;27;20026;-65
2022/05/14 04:04:14;;;;;;;21.52;6.53;;;;;;;7.70;100.00;101923.34;5144599;27;20377;-64
2022/05/14 04:06:39;;;;;;;24.35;7.22;;;;;;;7.68;100.00;101934.72;5144600;27;20015;-65
2022/05/14 04:09:04;;;;;;;22.67;7.00;;;;;;;7.66;100.00;101931.16;5145570;27;20081;-64
2022/05/14 04:11:30;;;;;;;21.75;6.90;;;;;;;7.64;100.00;101924.94;5143171;27;20023;-65
2022/05/14 04:13:56;;;;;;;21.92;7.00;;;;;;;7.66;100.00;101927.66;5146668;27;20026;-65
2022/05/14 04:16:22;;;;;;;21.52;7.30;;;;;;;7.68;100.00;101939.09;5143163;27;20030;-64
2022/05/14 04:18:47;;;;;;;23.55;7.72;;;;;;;7.66;100.00;101941.69;5145274;27;20031;-64
2022/05/14 04:21:13;;;;;;;22.90;7.18;;;;;;;7.64;100.00;101940.72;5144338;27;20040;-64
2022/05/14 04:23:38;;;;;;;23.20;7.10;;;;;;;7.65;100.00;101932.00;5144172;27;20023;-64
2022/05/14 04:26:04;;;;;;;20.55;7.10;;;;;;;7.68;100.00;101939.09;5145639;27;20022;-64
2022/05/14 04:28:29;;;;;;;20.92;7.50;;;;;;;7.65;100.00;101934.63;5142505;27;20023;-64
2022/05/14 04:30:55;;;;;;;23.35;7.47;;;;;;;7.64;100.00;101940.72;5127640;27;20022;-66
2022/05/14 04:33:23;;;;;;;23.38;7.47;;;;;;;7.67;100.00;101940.84;5142812;27;20130;-67
2022/05/14 04:35:48;;;;;;;21.65;7.28;;;;;;;7.74;100.00;101934.03;5145704;27;20106;-66
2022/05/14 04:38:13;;;;;;;23.95;7.65;;;;;;;7.73;100.00;101937.50;5143744;27;20114;-66
2022/05/14 04:40:39;;;;;;;23.17;7.80;;;;;;;7.74;100.00;101935.78;5144087;27;20026;-65
2022/05/14 04:43:07;;;;;;;22.60;7.97;;;;;;;7.75;100.00;101929.69;5145366;27;20014;-67
2022/05/14 04:45:32;;;;;;;23.05;7.53;;;;;;;7.78;100.00;101935.94;5142693;27;20458;-65
2022/05/14 04:47:58;;;;;;;22.88;7.88;;;;;;;7.80;100.00;101944.75;5145826;27;20026;-66
2022/05/14 04:50:23;;;;;;;23.45;8.10;;;;;;;7.81;100.00;101943.94;5142682;27;20019;-66
2022/05/14 04:52:48;;;;;;;22.55;7.93;;;;;;;7.87;100.00;101951.13;5145172;27;20543;-66
2022/05/14 04:55:14;;;;;;;21.48;7.72;;;;;;;7.89;100.00;101943.28;5143720;27;20111;-64
2022/05/14 04:57:43;;;;;;;22.77;7.63;;;;;;;7.92;100.00;101939.03;5143573;27;20517;-64
2022/05/14 05:00:10;;;;;;;23.88;8.10;;;;;;;7.96;100.00;101942.66;5144244;27;20038;-65
2022/05/14 05:05:19;;;;;;;23.55;8.40;;;;;;;8.07;100.00;101945.63;5143137;27;20038;-64
2022/05/14 05:07:46;;;;;;;22.65;8.60;;;;;;;8.12;100.00;101957.22;5144814;27;20016;-65
2022/05/14 05:10:12;;;;;;;25.40;8.80;;;;;;;8.17;100.00;101956.50;5143646;27;20129;-65
2022/05/14 05:12:37;;;;;;;25.70;8.75;;;;;;;8.23;100.00;101953.19;5143374;27;20106;-65
2022/05/14 05:15:03;;;;;;;25.33;9.10;;;;;;;8.27;100.00;101951.53;5144905;27;20092;-65
2022/05/14 05:17:28;;;;;;;24.48;9.43;;;;;;;8.32;100.00;101950.81;5141987;27;20035;-65
2022/05/14 05:19:53;;;;;;;23.70;9.07;;;;;;;8.38;100.00;101964.19;5141139;27;20029;-65
2022/05/14 05:22:19;;;;;;;23.73;9.20;;;;;;;8.44;100.00;101965.22;5136064;27;20033;-64
2022/05/14 05:24:44;;;;;;;23.90;9.32;;;;;;;8.50;100.00;101960.19;5141915;27;20461;-65
2022/05/14 05:27:10;;;;;;;25.77;10.32;;;;;;;8.54;100.00;101957.69;5142343;27;20031;-65
2022/05/14 05:29:35;;;;;;;24.75;9.70;;;;;;;8.61;100.00;101949.97;5140136;27;20354;-65
2022/05/14 05:32:00;;;;;;;25.85;10.30;;;;;;;8.67;100.00;101958.94;5144958;27;20023;-65
2022/05/14 05:34:26;;;;;;;25.13;10.43;;;;;;;8.77;100.00;101970.66;5143254;27;20027;-65
2022/05/14 05:36:52;;;;;;;25.75;10.38;;;;;;;8.85;100.00;101977.06;5143597;27;20016;-66
2022/05/14 05:39:18;;;;;;;23.98;10.02;;;;;;;8.90;100.00;101979.84;5144049;27;20044;-66
2022/05/14 05:41:43;;;;;;;24.60;10.05;;;;;;;8.97;100.00;101979.16;5145107;27;20027;-65
2022/05/14 05:44:08;;;;;;;25.30;11.50;;;;;;;9.05;100.00;101977.63;5149358;27;20018;-66
2022/05/14 05:46:35;;;;;;;28.02;11.75;;;;;;;9.13;100.00;101979.59;5145677;27;20501;-65
2022/05/14 05:49:00;;;;;;;26.38;11.23;;;;;;;9.21;100.00;101978.06;5129904;27;20035;-66
2022/05/14 05:51:25;;;;;;;26.30;11.20;;;;;;;9.25;100.00;101979.94;5147004;27;20025;-66
2022/05/14 05:56:47;;;;;;;26.85;11.98;;;;;;;9.39;100.00;101978.59;5141686;27;20392;-68
2022/05/14 05:59:15;;;;;;;26.13;12.18;;;;;;;9.49;100.00;101984.09;5142968;27;20033;-66
2022/05/14 06:01:41;;;;;;;29.33;13.05;;;;;;;9.57;100.00;101987.84;5149174;27;20054;-68
2022/05/14 06:04:06;;;;;;;28.98;12.27;;;;;;;9.60;100.00;101987.94;5145578;27;20461;-63
2022/05/14 06:06:32;;;;;;;28.13;12.30;;;;;;;9.67;100.00;101988.97;5148706;27;20019;-62
2022/05/14 06:08:59;;;;;;;28.52;13.23;;;;;;;9.79;100.00;101988.41;5146034;27;20084;-62
2022/05/14 06:11:25;;;;;;;29.55;13.00;;;;;;;9.84;100.00;101981.50;5147403;27;20035;-63
2022/05/14 06:13:51;;;;;;;29.27;13.23;;;;;;;9.91;100.00;101986.97;5147259;27;20027;-63
2022/05/14 06:16:16;;;;;;;29.27;13.75;;;;;;;10.02;100.00;101989.88;5146014;27;20068;-62
2022/05/14 06:18:44;;;;;;;30.50;13.55;;;;;;;10.06;100.00;101988.19;5148436;27;20499;-63
2022/05/14 06:21:10;;;;;;;29.35;13.23;;;;;;;10.12;100.00;101993.66;5145180;27;20030;-63
2022/05/14 06:23:36;;;;;;;33.30;14.68;;;;;;;10.18;100.00;101993.81;5141219;27;20366;-64
2022/05/14 06:26:01;;;;;;;28.13;14.00;;;;;;;10.31;100.00;101995.00;5148110;27;20011;-63
2022/05/14 06:28:26;;;;;;;29.20;13.45;;;;;;;10.37;100.00;101994.25;5146141;27;20030;-62
2022/05/14 06:30:52;;;;;;;31.73;13.90;;;;;;;10.44;100.00;101999.75;5146452;27;20027;-62
2022/05/14 06:33:18;;;;;;;30.75;14.48;;;;;;;10.51;100.00;102006.03;5147389;27;20090;-62
2022/05/14 06:35:44;;;;;;;30.67;14.45;;;;;;;10.63;100.00;102013.41;5145139;27;20021;-63
2022/05/14 06:38:10;;;;;;;31.00;14.35;;;;;;;10.73;100.00;102017.13;5129667;27;20078;-62
2022/05/14 06:40:36;;;;;;;29.48;12.85;;;;;;;10.83;100.00;102011.16;5140731;27;20023;-63
2022/05/14 06:43:03;;;;;;;32.80;14.68;;;;;;;10.85;100.00;102009.47;5147649;27;20026;-63
2022/05/14 06:45:29;;;;;;;30.70;14.80;;;;;;;10.95;100.00;102024.66;5145373;27;20066;-63
2022/05/14 06:47:57;;;;;;;29.75;14.45;;;;;;;10.98;100.00;102015.91;5146711;27;20098;-62
2022/05/14 06:50:25;;;;;;;32.53;14.45;;;;;;;11.08;100.00;102027.56;5146275;27;20071;-62
2022/05/14 06:52:54;;;;;;;30.75;15.35;;;;;;;11.12;100.00;102027.66;5145531;27;20038;-64
2022/05/14 06:55:23;;;;;;;30.92;15.05;;;;;;;11.24;100.00;102019.09;5146680;27;20015;-64
2022/05/14 06:57:50;;;;;;;33.25;15.57;;;;;;;11.38;100.00;102011.41;5145686;27;20034;-64
2022/05/14 07:00:16;;;;;;;31.75;15.10;;;;;;;11.46;100.00;102016.84;5147414;27;20455;-62
2022/05/14 07:02:43;;;;;;;31.50;14.52;;;;;;;11.52;100.00;102012.59;5144219;27;20489;-62
2022/05/14 07:07:53;;;;;;;30.13;15.13;;;;;;;11.73;100.00;102019.13;5144658;27;20034;-62
2022/05/14 07:10:18;;;;;;;32.80;15.40;;;;;;;11.72;100.00;102004.09;5146472;27;20046;-65
2022/05/14 07:12:44;;;;;;;30.20;15.48;;;;;;;11.79;100.00;102010.41;5144281;27;20377;-64
2022/05/14 07:15:11;;;;;;;31.23;15.50;;;;;;;11.90;100.00;102010.59;5147836;27;20023;-65
2022/05/14 07:17:37;;;;;;;31.60;15.65;;;;;;;11.97;100.00;102021.38;5140197;27;20056;-65
2022/05/14 07:20:03;;;;;;;32.03;15.95;;;;;;;12.04;100.00;102025.00;5147041;27;20504;-66
2022/05/14 07:22:29;;;;;;;33.28;16.02;;;;;;;12.19;100.00;102025.28;5145142;27;20022;-66
2022/05/14 07:24:54;;;;;;;33.67;16.73;;;;;;;12.28;100.00;102024.53;5145711;27;20067;-65
2022/05/14 07:27:19;;;;;;;32.65;15.48;;;;;;;12.37;100.00;102011.41;5146400;27;20023;-65
2022/05/14 07:29:45;;;;;;;31.13;14.68;;;;;;;12.47;100.00;102014.22;5144326;27;20377;-67
2022/05/14 07:32:13;;;;;;;31.27;14.98;;;;;;;12.57;100.00;102018.78;5147082;27;20038;-66
2022/05/14 07:34:40;;;;;;;34.22;16.38;;;;;;;12.71;100.00;102024.28;5140048;27;20076;-66
2022/05/14 07:37:09;;;;;;;31.40;15.43;;;;;;;12.75;100.00;102026.09;5146884;27;20460;-66
2022/05/14 07:39:41;;;;;;;33.55;16.40;;;;;;;12.97;100.00;102011.38;5143823;27;20031;-65
2022/05/14 07:42:12;;;;;;;32.03;15.07;;;;;;;12.98;100.00;102013.16;5138965;27;20237;-67
2022/05/14 07:44:41;;;;;;;30.42;15.70;;;;;;;13.07;100.00;102012.38;5139531;27;20556;-66
2022/05/14 07:47:07;;;;;;;32.03;15.25;;;;;;;13.14;100.00;102016.03;5139186;27;20034;-64
2022/05/14 07:49:33;;;;;;;31.23;15.27;;;;;;;13.21;100.00;102020.53;5146197;27;20022;-65
2022/05/14 07:51:59;;;;;;;31.27;15.05;;;;;;;13.42;100.00;102020.78;5144782;27;20027;-63
2022/05/14 07:54:24;;;;;;;30.88;14.48;;;;;;;13.57;100.00;102017.44;5145148;27;20069;-62
2022/05/14 07:56:50;;;;;;;30.92;14.88;;;;;;;13.60;100.00;102020.13;5145551;27;20464;-62
2022/05/14 07:59:16;;;;;;;30.08;15.55;;;;;;;13.73;100.00;102013.16;5143894;27;20431;-62
2022/05/14 08:01:42;;;;;;;32.72;14.80;;;;;;;13.83;100.00;102026.53;5146514;27;20022;-62
2022/05/14 08:04:08;;;;;;;32.22;15.30;;;;;;;14.01;100.00;102025.78;5142250;27;20027;-63
2022/05/14 08:06:34;;;;;;;29.50;14.63;;;;;;;14.12;100.00;102030.34;5146282;27;20110;-62
2022/05/14 08:08:59;;;;;;;31.77;15.13;;;;;;;14.28;100.00;102026.06;5143659;27;20070;-62
2022/05/14 08:11:26;;;;;;;30.40;14.90;;;;;;;14.47;100.00;102023.50;5144872;27;20419;-62
2022/05/14 08:13:54;;;;;;;30.45;14.45;;;;;;;14.72;100.00;102013.97;5144873;27;20034;-63
2022/05/14 08:16:22;;;;;;;29.80;14.40;;;;;;;14.90;100.00;102022.94;5124944;27;20103;-62
2022/05/14 08:18:47;;;;;;;30.52;14.18;;;;;;;14.98;100.00;102023.84;5145344;27;20361;-62
2022/05/14 08:26:40;;;;;;;31.85;15.07;;;;;;;15.27;100.00;102020.41;5123959;27;20049;-62
2022/05/14 08:29:06;;;;;;;29.15;13.82;;;;;;;15.59;100.00;102017.81;5145909;27;20023;-63
2022/05/14 08:31:32;;;;;;;28.65;13.35;;;;;;;15.78;100.00;102020.53;5143527;27;20035;-62
2022/05/14 08:33:57;;;;;;;29.45;12.85;;;;;;;16.02;100.00;102027.72;5144561;27;20058;-63
2022/05/14 08:36:22;;;;;;;28.75;13.05;;;;;;;16.15;100.00;102033.91;5144358;27;20023;-66
2022/05/14 08:38:48;;;;;;;28.55;13.40;;;;;;;16.11;100.00;102033.03;5143202;27;20035;-63
2022/05/14 08:41:15;;;;;;;29.05;12.98;;;;;;;16.19;100.00;102027.69;5145584;27;20023;-63
2022/05/14 08:44:07;;;;;;;30.13;13.35;;;;;;;16.48;100.00;102025.00;5142449;27;20026;-62
2022/05/14 08:46:35;;;;;;;29.40;12.95;;;;;;;16.55;100.00;102024.09;5144534;27;20139;-63
2022/05/14 08:49:08;;;;;;;28.80;12.82;;;;;;;16.68;100.00;102022.28;5143278;27;20038;-63
2022/05/14 08:51:36;;;;;;;28.42;13.15;;;;;;;16.79;100.00;102027.63;5145555;27;20155;-63
2022/05/14 08:54:03;;;;;;;28.48;12.70;;;;;;;17.02;100.00;102024.00;5143134;27;20107;-63
2022/05/14 08:56:44;;;;;;;31.25;12.55;;;;;;;17.32;100.00;102025.66;5144438;27;20103;-64
2022/05/14 08:59:35;;;;;;;29.33;13.18;;;;;;;17.36;100.00;102018.53;5138048;27;20087;-63
2022/05/14 09:02:06;;;;;;;28.50;13.13;;;;;;;17.50;100.00;102010.41;5143903;27;20023;-64
2022/05/14 09:04:31;;;;;;;27.95;12.32;;;;;;;17.55;100.00;102013.97;5143189;27;20015;-63
2022/05/14 09:06:57;;;;;;;28.95;12.48;;;;;;;17.83;100.00;102025.34;5138051;27;20042;-63
2022/05/14 09:09:22;;;;;;;29.05;12.45;;;;;;;17.74;100.00;102028.97;5138068;27;20050;-62
2022/05/14 09:11:58;;;;;;;29.92;12.23;;;;;;;17.86;100.00;102037.81;5142083;27;20031;-63
2022/05/14 09:14:32;;;;;;;26.05;11.48;;;;;;;18.05;100.00;102020.75;5139001;27;20016;-65
2022/05/14 09:17:29;;;;;;;28.98;12.02;;;;;;;18.31;100.00;102022.31;5146146;27;20107;-63
2022/05/14 09:19:55;;;;;;;25.67;11.85;;;;;;;18.59;100.00;102022.03;5071339;28;20402;-62
2022/05/14 09:22:52;;;;;;;27.85;11.88;;;;;;;18.75;100.00;102023.63;5074249;28;20024;-63
2022/05/14 09:25:39;;;;;;;28.95;12.10;;;;;;;18.88;100.00;102028.91;5070069;28;20032;-62
2022/05/14 09:28:11;;;;;;;26.50;10.90;;;;;;;19.28;100.00;102028.41;5073337;28;20094;-62
2022/05/14 09:30:51;;;;;;;27.38;11.02;;;;;;;19.51;100.00;102012.91;5073982;28;20040;-63
2022/05/14 09:33:27;;;;;;;29.73;12.10;;;;;;;19.38;100.00;102022.00;5073868;28;20039;-62
2022/05/14 09:35:59;;;;;;;25.65;10.90;;;;;;;19.58;99.63;102021.72;5073965;28;20066;-63
2022/05/14 09:38:26;;;;;;;27.80;11.45;;;;;;;19.75;96.63;102023.28;5073970;28;20112;-63
2022/05/14 09:40:54;;;;;;;27.55;10.52;;;;;;;20.50;91.96;102014.00;5073821;28;20575;-63
2022/05/14 09:43:19;;;;;;;25.45;10.65;;;;;;;20.87;84.41;102010.59;5073695;28;20045;-62
2022/05/14 09:46:04;;;;;;;25.83;10.50;;;;;;;22.03;83.45;102018.78;5073987;28;20081;-63
2022/05/14 09:48:34;;;;;;;24.52;9.95;;;;;;;23.72;59.96;102016.72;5073027;28;20834;-67
2022/05/14 09:51:04;;;;;;;24.42;9.27;;;;;;;24.29;46.69;102007.63;5073670;28;20037;-65
2022/05/14 09:53:36;;;;;;;27.40;9.55;;;;;;;24.49;45.34;102012.34;5073525;28;20024;-66
2022/05/14 09:56:33;;;;;;;24.20;8.90;;;;;;;25.19;43.02;102012.47;5102017;27;20416;-66
2022/05/14 09:59:36;;;;;;;22.67;7.57;;;;;;;26.25;39.50;102012.72;5144138;27;20034;-67
2022/05/14 10:02:07;;;;;;;24.85;8.23;;;;;;;25.82;38.13;102014.50;5148107;27;20030;-65
2022/05/14 10:04:54;;;;;;;24.23;8.88;;;;;;;25.97;37.65;102019.31;5146019;27;20023;-66
2022/05/14 10:07:34;;;;;;;27.67;9.10;;;;;;;26.23;37.13;102011.94;5144563;27;20027;-66
2022/05/14 10:10:37;;;;;;;24.20;7.97;;;;;;;26.37;34.92;102012.22;5145859;27;20505;-68
2022/05/14 10:13:13;;;;;;;23.40;7.60;;;;;;;26.71;33.93;102010.72;5148263;27;20029;-66
2022/05/14 10:15:50;;;;;;;23.00;7.80;;;;;;;28.03;32.72;102018.94;5141301;27;20023;-67
2022/05/14 10:18:38;;;;;;;23.45;8.88;;;;;;;27.95;31.96;102021.16;5143020;27;20032;-65
2022/05/14 10:21:18;;;;;;;24.88;9.00;;;;;;;28.51;32.08;102014.66;5126804;27;20019;-67
2022/05/14 10:26:52;;;;;;;20.73;6.47;;;;;;;29.61;27.57;102007.78;5144144;27;20042;-65
2022/05/14 10:29:36;;;;;;;22.92;7.22;;;;;;;30.12;26.19;102008.41;5147608;27;20023;-66
2022/05/14 10:32:02;;;;;;;24.08;8.73;;;;;;;29.67;27.19;102010.13;5147600;27;20087;-66
2022/05/14 10:34:40;;;;;;;24.08;8.85;;;;;;;27.17;30.59;102013.13;5145819;27;20023;-67
2022/05/14 10:37:15;;;;;;;24.25;8.20;;;;;;;27.13;31.47;102009.69;5148279;27;20033;-68
2022/05/14 10:39:58;;;;;;;22.60;7.85;;;;;;;28.47;30.66;102013.03;5141242;27;20038;-66
2022/05/14 10:42:38;;;;;;;22.98;7.85;;;;;;;29.99;27.89;102010.13;5145122;27;20373;-69
2022/05/14 10:45:14;;;;;;;23.15;7.53;;;;;;;30.50;26.98;102007.94;5145359;27;20019;-66
2022/05/14 10:47:48;;;;;;;24.17;8.05;;;;;;;30.90;24.98;102010.00;5141019;27;20361;-69
2022/05/14 10:50:21;;;;;;;23.27;7.60;;;;;;;29.65;26.18;102012.06;5141784;27;20024;-68
2022/05/14 10:52:50;;;;;;;22.25;7.68;;;;;;;29.30;26.79;102010.41;5147213;27;20029;-66
2022/05/14 10:55:18;;;;;;;23.25;8.30;;;;;;;29.58;26.71;102016.09;5144983;27;20031;-66
2022/05/14 10:57:48;;;;;;;23.30;7.70;;;;;;;30.48;25.88;102015.34;5128795;27;20047;-66
2022/05/14 11:00:32;;;;;;;24.58;8.60;;;;;;;30.29;26.54;102010.13;5144710;27;20031;-66
2022/05/14 11:03:01;;;;;;;21.88;7.47;;;;;;;29.82;26.24;102006.53;5145458;27;20027;-63
2022/05/14 11:05:31;;;;;;;21.83;7.47;;;;;;;29.17;26.67;102002.03;5146536;27;20027;-64
2022/05/14 11:08:07;;;;;;;21.45;7.40;;;;;;;28.53;28.13;102000.97;5145514;27;20027;-66
2022/05/14 11:10:35;;;;;;;22.90;7.40;;;;;;;28.45;28.40;102000.50;5147368;27;20034;-65
2022/05/14 11:13:11;;;;;;;23.60;7.82;;;;;;;28.85;28.45;101998.38;5144729;27;20457;-66
2022/05/14 11:15:37;;;;;;;22.88;8.05;;;;;;;29.72;27.09;101999.81;5140062;27;20069;-66
2022/05/14 11:18:06;;;;;;;24.88;8.25;;;;;;;31.21;25.25;102008.94;5146876;27;20415;-64
2022/05/14 11:20:32;;;;;;;21.58;7.88;;;;;;;32.30;24.16;102005.34;5144398;27;20033;-66
2022/05/14 11:23:24;;;;;;;21.02;7.90;;;;;;;30.87;25.45;102002.00;5146208;27;20109;-64
2022/05/14 11:26:11;;;;;;;22.77;8.93;;;;;;;28.17;29.28;102002.81;5139543;27;20393;-64
2022/05/14 11:28:37;;;;;;;23.17;8.77;;;;;;;29.34;27.68;102000.22;5143849;27;20428;-64
2022/05/14 11:31:17;;;;;;;24.20;9.23;;;;;;;30.28;26.98;102008.34;5146648;27;20080;-65
2022/05/14 11:33:44;;;;;;;23.13;8.88;;;;;;;31.30;24.78;102010.19;5140650;27;20113;-64
2022/05/14 11:36:12;;;;;;;22.55;8.13;;;;;;;31.51;24.70;102016.06;5147235;27;20022;-64
2022/05/14 11:38:45;;;;;;;20.15;7.60;;;;;;;31.09;23.72;102001.53;5119870;27;20034;-65
2022/05/14 11:41:26;;;;;;;21.80;6.80;;;;;;;31.21;23.22;102006.22;5139890;27;20043;-66